sensor_id;sensor_type;location;lat;lon;timestamp;temperature;humidity
13600;DHT22;6871;51.34740610;4.31323160;2023-04-27T00:00:11;15.10;75.20
13600;DHT22;6871;51.34740610;4.31323160;2023-04-27T00:02:41;15.00;75.00
13600;DHT22;6871;51.34740610;4.31323160;2023-04-27T00:05:10;15.00;75.40
13600;DHT22;6871;51.34740610;4.31323160;2023-04-27T00:07:40;15.00;75.60
13600;DHT22;6871;51.34740610;4.31323160;2023-04-27T00:10:10;15.00;75.00
13600;DHT22;6871;51.34740610;4.31323160;2023-04-27T00:12:39;15.00;75.00
13600;DHT22;6871;51.34740610;4.31323160;2023-04-27T00:15:10;15.00;75.10
13600;DHT22;6871;51.34740610;4.31323160;2023-04-27T00:17:40;15.00;75.20
13600;DHT22;6871;51.34740610;4.31323160;2023-04-27T00:20:11;15.00;74.90
13600;DHT22;6871;51.34740610;4.31323160;2023-04-27T00:22:41;15.00;75.20
13600;DHT22;6871;51.34740610;4.31323160;2023-04-27T00:25:10;15.00;75.20
13600;DHT22;6871;51.34740610;4.31323160;2023-04-27T00:27:39;15.00;75.10
13600;DHT22;6871;51.34740610;4.31323160;2023-04-27T00:30:10;15.00;74.90
13600;DHT22;6871;51.34740610;4.31323160;2023-04-27T00:32:39;15.00;75.10
13600;DHT22;6871;51.34740610;4.31323160;2023-04-27T00:35:10;14.90;75.00
13600;DHT22;6871;51.34740610;4.31323160;2023-04-27T00:37:39;15.00;74.70
13600;DHT22;6871;51.34740610;4.31323160;2023-04-27T00:40:09;15.00;75.00
13600;DHT22;6871;51.34740610;4.31323160;2023-04-27T00:42:39;15.00;75.10
13600;DHT22;6871;51.34740610;4.31323160;2023-04-27T00:45:10;15.00;75.00
13600;DHT22;6871;51.34740610;4.31323160;2023-04-27T00:47:40;15.00;75.10
13600;DHT22;6871;51.34740610;4.31323160;2023-04-27T00:50:10;14.90;75.00
13600;DHT22;6871;51.34740610;4.31323160;2023-04-27T00:52:39;14.90;74.70
13600;DHT22;6871;51.34740610;4.31323160;2023-04-27T00:55:09;14.90;74.70
13600;DHT22;6871;51.34740610;4.31323160;2023-04-27T00:57:38;14.90;74.80
13600;DHT22;6871;51.34740610;4.31323160;2023-04-27T01:00:09;14.90;74.80
13600;DHT22;6871;51.34740610;4.31323160;2023-04-27T01:02:39;14.90;74.90
13600;DHT22;6871;51.34740610;4.31323160;2023-04-27T01:05:09;14.90;74.90
13600;DHT22;6871;51.34740610;4.31323160;2023-04-27T01:07:40;14.90;75.00
13600;DHT22;6871;51.34740610;4.31323160;2023-04-27T01:10:10;14.90;74.50
13600;DHT22;6871;51.34740610;4.31323160;2023-04-27T01:12:39;14.90;74.40
13600;DHT22;6871;51.34740610;4.31323160;2023-04-27T01:15:10;14.90;74.80
13600;DHT22;6871;51.34740610;4.31323160;2023-04-27T01:17:39;14.90;74.70
13600;DHT22;6871;51.34740610;4.31323160;2023-04-27T01:20:10;14.90;74.80
13600;DHT22;6871;51.34740610;4.31323160;2023-04-27T01:22:40;14.90;74.90
13600;DHT22;6871;51.34740610;4.31323160;2023-04-27T01:25:10;14.90;74.80
13600;DHT22;6871;51.34740610;4.31323160;2023-04-27T01:27:39;14.90;75.00
13600;DHT22;6871;51.34740610;4.31323160;2023-04-27T01:30:09;14.90;74.40
13600;DHT22;6871;51.34740610;4.31323160;2023-04-27T01:32:38;14.80;74.70
13600;DHT22;6871;51.34740610;4.31323160;2023-04-27T01:35:09;14.80;74.70
13600;DHT22;6871;51.34740610;4.31323160;2023-04-27T01:37:38;14.80;74.70
13600;DHT22;6871;51.34740610;4.31323160;2023-04-27T01:40:09;14.80;74.60
13600;DHT22;6871;51.34740610;4.31323160;2023-04-27T01:42:39;14.80;74.60
13600;DHT22;6871;51.34740610;4.31323160;2023-04-27T01:45:11;14.80;74.20
13600;DHT22;6871;51.34740610;4.31323160;2023-04-27T01:47:40;14.80;74.50
13600;DHT22;6871;51.34740610;4.31323160;2023-04-27T01:50:10;14.80;74.70
13600;DHT22;6871;51.34740610;4.31323160;2023-04-27T01:52:39;14.80;74.70
13600;DHT22;6871;51.34740610;4.31323160;2023-04-27T01:55:09;14.80;74.70
13600;DHT22;6871;51.34740610;4.31323160;2023-04-27T01:57:38;14.80;74.70
13600;DHT22;6871;51.34740610;4.31323160;2023-04-27T02:00:09;14.80;74.20
13600;DHT22;6871;51.34740610;4.31323160;2023-04-27T02:02:39;14.70;74.00
13600;DHT22;6871;51.34740610;4.31323160;2023-04-27T02:05:09;14.80;74.50
13600;DHT22;6871;51.34740610;4.31323160;2023-04-27T02:07:38;14.80;74.70
13600;DHT22;6871;51.34740610;4.31323160;2023-04-27T02:10:09;14.70;74.60
13600;DHT22;6871;51.34740610;4.31323160;2023-04-27T02:12:38;14.80;74.70
13600;DHT22;6871;51.34740610;4.31323160;2023-04-27T02:15:09;14.70;74.40
13600;DHT22;6871;51.34740610;4.31323160;2023-04-27T02:17:38;14.80;74.30
13600;DHT22;6871;51.34740610;4.31323160;2023-04-27T02:20:09;14.70;74.20
13600;DHT22;6871;51.34740610;4.31323160;2023-04-27T02:22:41;14.70;74.60
13600;DHT22;6871;51.34740610;4.31323160;2023-04-27T02:25:11;14.70;73.90
13600;DHT22;6871;51.34740610;4.31323160;2023-04-27T02:27:41;14.70;74.60
13600;DHT22;6871;51.34740610;4.31323160;2023-04-27T02:30:12;14.70;74.60
13600;DHT22;6871;51.34740610;4.31323160;2023-04-27T02:32:41;14.70;74.40
13600;DHT22;6871;51.34740610;4.31323160;2023-04-27T02:35:11;14.70;74.30
13600;DHT22;6871;51.34740610;4.31323160;2023-04-27T02:37:40;14.70;74.30
13600;DHT22;6871;51.34740610;4.31323160;2023-04-27T02:40:10;14.70;74.50
13600;DHT22;6871;51.34740610;4.31323160;2023-04-27T02:42:40;14.70;74.60
13600;DHT22;6871;51.34740610;4.31323160;2023-04-27T02:45:10;14.70;74.60
13600;DHT22;6871;51.34740610;4.31323160;2023-04-27T02:47:39;14.70;74.60
13600;DHT22;6871;51.34740610;4.31323160;2023-04-27T02:50:09;14.70;74.40
13600;DHT22;6871;51.34740610;4.31323160;2023-04-27T02:52:40;14.70;74.20
13600;DHT22;6871;51.34740610;4.31323160;2023-04-27T02:55:10;14.70;74.30
13600;DHT22;6871;51.34740610;4.31323160;2023-04-27T02:57:39;14.70;74.40
13600;DHT22;6871;51.34740610;4.31323160;2023-04-27T03:00:11;14.70;74.50
13600;DHT22;6871;51.34740610;4.31323160;2023-04-27T03:02:40;14.60;74.50
13600;DHT22;6871;51.34740610;4.31323160;2023-04-27T03:05:10;14.60;74.50
13600;DHT22;6871;51.34740610;4.31323160;2023-04-27T03:07:39;14.60;74.30
13600;DHT22;6871;51.34740610;4.31323160;2023-04-27T03:10:09;14.60;74.20
13600;DHT22;6871;51.34740610;4.31323160;2023-04-27T03:12:39;14.60;74.40
13600;DHT22;6871;51.34740610;4.31323160;2023-04-27T03:15:09;14.60;74.40
13600;DHT22;6871;51.34740610;4.31323160;2023-04-27T03:17:39;14.60;74.40
13600;DHT22;6871;51.34740610;4.31323160;2023-04-27T03:20:10;14.60;74.40
13600;DHT22;6871;51.34740610;4.31323160;2023-04-27T03:22:39;14.60;74.20
13600;DHT22;6871;51.34740610;4.31323160;2023-04-27T03:25:09;14.60;74.80
13600;DHT22;6871;51.34740610;4.31323160;2023-04-27T03:27:38;14.60;74.20
13600;DHT22;6871;51.34740610;4.31323160;2023-04-27T03:30:11;14.60;74.20
13600;DHT22;6871;51.34740610;4.31323160;2023-04-27T03:32:40;14.60;74.20
13600;DHT22;6871;51.34740610;4.31323160;2023-04-27T03:35:10;14.60;74.20
13600;DHT22;6871;51.34740610;4.31323160;2023-04-27T03:37:39;14.60;74.40
13600;DHT22;6871;51.34740610;4.31323160;2023-04-27T03:40:11;14.50;74.10
13600;DHT22;6871;51.34740610;4.31323160;2023-04-27T03:42:41;14.60;74.10
13600;DHT22;6871;51.34740610;4.31323160;2023-04-27T03:45:11;14.60;74.10
13600;DHT22;6871;51.34740610;4.31323160;2023-04-27T03:47:40;14.60;74.10
13600;DHT22;6871;51.34740610;4.31323160;2023-04-27T03:50:10;14.50;74.10
13600;DHT22;6871;51.34740610;4.31323160;2023-04-27T03:52:39;14.50;74.40
13600;DHT22;6871;51.34740610;4.31323160;2023-04-27T03:55:09;14.50;74.20
13600;DHT22;6871;51.34740610;4.31323160;2023-04-27T03:57:38;14.50;74.90
13600;DHT22;6871;51.34740610;4.31323160;2023-04-27T04:00:10;14.50;74.00
13600;DHT22;6871;51.34740610;4.31323160;2023-04-27T04:02:39;14.50;74.00
13600;DHT22;6871;51.34740610;4.31323160;2023-04-27T04:05:09;14.50;74.20
13600;DHT22;6871;51.34740610;4.31323160;2023-04-27T04:07:39;14.50;74.30
13600;DHT22;6871;51.34740610;4.31323160;2023-04-27T04:10:10;14.40;74.20
13600;DHT22;6871;51.34740610;4.31323160;2023-04-27T04:12:39;14.50;74.40
13600;DHT22;6871;51.34740610;4.31323160;2023-04-27T04:15:09;14.50;74.10
13600;DHT22;6871;51.34740610;4.31323160;2023-04-27T04:17:38;14.50;74.00
13600;DHT22;6871;51.34740610;4.31323160;2023-04-27T04:20:09;14.50;74.00
13600;DHT22;6871;51.34740610;4.31323160;2023-04-27T04:22:39;14.50;74.10
13600;DHT22;6871;51.34740610;4.31323160;2023-04-27T04:25:10;14.50;74.20
13600;DHT22;6871;51.34740610;4.31323160;2023-04-27T04:27:39;14.40;74.00
13600;DHT22;6871;51.34740610;4.31323160;2023-04-27T04:30:10;14.50;74.00
13600;DHT22;6871;51.34740610;4.31323160;2023-04-27T04:32:40;14.50;73.70
13600;DHT22;6871;51.34740610;4.31323160;2023-04-27T04:35:09;14.50;73.80
13600;DHT22;6871;51.34740610;4.31323160;2023-04-27T04:37:38;14.50;73.90
13600;DHT22;6871;51.34740610;4.31323160;2023-04-27T04:40:10;14.50;74.00
13600;DHT22;6871;51.34740610;4.31323160;2023-04-27T04:42:40;14.40;74.10
13600;DHT22;6871;51.34740610;4.31323160;2023-04-27T04:45:10;14.40;74.10
13600;DHT22;6871;51.34740610;4.31323160;2023-04-27T04:47:39;14.40;74.00
13600;DHT22;6871;51.34740610;4.31323160;2023-04-27T04:50:09;14.40;73.80
13600;DHT22;6871;51.34740610;4.31323160;2023-04-27T04:52:39;14.40;73.80
13600;DHT22;6871;51.34740610;4.31323160;2023-04-27T04:55:10;14.40;73.80
13600;DHT22;6871;51.34740610;4.31323160;2023-04-27T04:57:39;14.40;74.00
13600;DHT22;6871;51.34740610;4.31323160;2023-04-27T05:00:10;14.40;74.00
13600;DHT22;6871;51.34740610;4.31323160;2023-04-27T05:02:41;14.40;74.00
13600;DHT22;6871;51.34740610;4.31323160;2023-04-27T05:05:10;14.40;73.80
13600;DHT22;6871;51.34740610;4.31323160;2023-04-27T05:07:39;14.40;73.70
13600;DHT22;6871;51.34740610;4.31323160;2023-04-27T05:10:09;14.40;73.80
13600;DHT22;6871;51.34740610;4.31323160;2023-04-27T05:12:39;14.40;73.90
13600;DHT22;6871;51.34740610;4.31323160;2023-04-27T05:15:09;14.40;74.00
13600;DHT22;6871;51.34740610;4.31323160;2023-04-27T05:17:39;14.40;74.00
13600;DHT22;6871;51.34740610;4.31323160;2023-04-27T05:20:09;14.40;74.00
13600;DHT22;6871;51.34740610;4.31323160;2023-04-27T05:22:38;14.40;73.70
13600;DHT22;6871;51.34740610;4.31323160;2023-04-27T05:25:08;14.30;74.60
13600;DHT22;6871;51.34740610;4.31323160;2023-04-27T05:27:38;14.30;73.80
13600;DHT22;6871;51.34740610;4.31323160;2023-04-27T05:30:10;14.40;74.00
13600;DHT22;6871;51.34740610;4.31323160;2023-04-27T05:32:39;14.30;74.60
13600;DHT22;6871;51.34740610;4.31323160;2023-04-27T05:35:09;14.40;74.00
13600;DHT22;6871;51.34740610;4.31323160;2023-04-27T05:37:38;14.30;73.90
13600;DHT22;6871;51.34740610;4.31323160;2023-04-27T05:40:09;14.30;74.00
13600;DHT22;6871;51.34740610;4.31323160;2023-04-27T05:42:39;14.30;73.90
13600;DHT22;6871;51.34740610;4.31323160;2023-04-27T05:45:10;14.30;73.70
13600;DHT22;6871;51.34740610;4.31323160;2023-04-27T05:47:39;14.30;73.20
13600;DHT22;6871;51.34740610;4.31323160;2023-04-27T05:50:09;14.40;73.20
13600;DHT22;6871;51.34740610;4.31323160;2023-04-27T05:52:39;14.40;73.20
13600;DHT22;6871;51.34740610;4.31323160;2023-04-27T05:55:09;14.40;73.40
13600;DHT22;6871;51.34740610;4.31323160;2023-04-27T05:57:39;14.40;73.40
13600;DHT22;6871;51.34740610;4.31323160;2023-04-27T06:00:11;14.30;73.30
13600;DHT22;6871;51.34740610;4.31323160;2023-04-27T06:02:42;14.30;73.30
13600;DHT22;6871;51.34740610;4.31323160;2023-04-27T06:05:11;14.40;73.40
13600;DHT22;6871;51.34740610;4.31323160;2023-04-27T06:07:40;14.30;73.30
13600;DHT22;6871;51.34740610;4.31323160;2023-04-27T06:10:11;14.30;73.40
13600;DHT22;6871;51.34740610;4.31323160;2023-04-27T06:12:40;14.30;73.30
13600;DHT22;6871;51.34740610;4.31323160;2023-04-27T06:15:10;14.40;73.40
13600;DHT22;6871;51.34740610;4.31323160;2023-04-27T06:17:40;14.40;73.40
13600;DHT22;6871;51.34740610;4.31323160;2023-04-27T06:20:11;14.40;73.40
13600;DHT22;6871;51.34740610;4.31323160;2023-04-27T06:22:42;14.30;73.50
13600;DHT22;6871;51.34740610;4.31323160;2023-04-27T06:25:13;14.30;73.60
13600;DHT22;6871;51.34740610;4.31323160;2023-04-27T06:27:42;14.40;73.70
13600;DHT22;6871;51.34740610;4.31323160;2023-04-27T06:30:13;14.40;73.50
13600;DHT22;6871;51.34740610;4.31323160;2023-04-27T06:32:42;14.40;73.40
13600;DHT22;6871;51.34740610;4.31323160;2023-04-27T06:35:12;14.40;73.40
13600;DHT22;6871;51.34740610;4.31323160;2023-04-27T06:37:41;14.40;73.60
13600;DHT22;6871;51.34740610;4.31323160;2023-04-27T06:40:12;14.40;73.70
13600;DHT22;6871;51.34740610;4.31323160;2023-04-27T06:42:41;14.40;73.70
13600;DHT22;6871;51.34740610;4.31323160;2023-04-27T06:45:11;14.40;73.80
13600;DHT22;6871;51.34740610;4.31323160;2023-04-27T06:47:41;14.40;73.70
13600;DHT22;6871;51.34740610;4.31323160;2023-04-27T06:50:10;14.40;73.60
13600;DHT22;6871;51.34740610;4.31323160;2023-04-27T06:52:40;14.40;73.70
13600;DHT22;6871;51.34740610;4.31323160;2023-04-27T06:55:09;14.30;74.10
13600;DHT22;6871;51.34740610;4.31323160;2023-04-27T06:57:39;14.20;74.80
13600;DHT22;6871;51.34740610;4.31323160;2023-04-27T07:00:11;14.30;74.40
13600;DHT22;6871;51.34740610;4.31323160;2023-04-27T07:02:41;14.30;74.10
13600;DHT22;6871;51.34740610;4.31323160;2023-04-27T07:05:10;14.40;74.00
13600;DHT22;6871;51.34740610;4.31323160;2023-04-27T07:07:40;14.40;73.90
13600;DHT22;6871;51.34740610;4.31323160;2023-04-27T07:10:09;14.40;73.90
13600;DHT22;6871;51.34740610;4.31323160;2023-04-27T07:12:40;14.40;73.90
13600;DHT22;6871;51.34740610;4.31323160;2023-04-27T07:15:10;14.40;73.90
13600;DHT22;6871;51.34740610;4.31323160;2023-04-27T07:17:39;14.40;73.90
13600;DHT22;6871;51.34740610;4.31323160;2023-04-27T07:20:09;14.30;74.30
13600;DHT22;6871;51.34740610;4.31323160;2023-04-27T07:22:40;14.40;74.40
13600;DHT22;6871;51.34740610;4.31323160;2023-04-27T07:25:10;14.50;74.20
13600;DHT22;6871;51.34740610;4.31323160;2023-04-27T07:27:39;14.40;74.20
13600;DHT22;6871;51.34740610;4.31323160;2023-04-27T07:30:10;14.40;74.00
13600;DHT22;6871;51.34740610;4.31323160;2023-04-27T07:32:41;14.50;73.90
13600;DHT22;6871;51.34740610;4.31323160;2023-04-27T07:35:11;14.50;73.80
13600;DHT22;6871;51.34740610;4.31323160;2023-04-27T07:37:40;14.50;74.00
13600;DHT22;6871;51.34740610;4.31323160;2023-04-27T07:40:13;14.50;74.10
13600;DHT22;6871;51.34740610;4.31323160;2023-04-27T07:42:43;14.40;74.50
13600;DHT22;6871;51.34740610;4.31323160;2023-04-27T07:45:14;14.30;74.50
13600;DHT22;6871;51.34740610;4.31323160;2023-04-27T07:47:44;14.40;74.60
13600;DHT22;6871;51.34740610;4.31323160;2023-04-27T07:50:15;14.40;74.80
13600;DHT22;6871;51.34740610;4.31323160;2023-04-27T07:52:46;14.50;74.50
13600;DHT22;6871;51.34740610;4.31323160;2023-04-27T07:55:15;14.50;74.20
13600;DHT22;6871;51.34740610;4.31323160;2023-04-27T07:57:44;14.60;74.10
13600;DHT22;6871;51.34740610;4.31323160;2023-04-27T08:00:14;14.60;74.00
13600;DHT22;6871;51.34740610;4.31323160;2023-04-27T08:02:44;14.60;74.00
13600;DHT22;6871;51.34740610;4.31323160;2023-04-27T08:05:13;14.60;74.00
13600;DHT22;6871;51.34740610;4.31323160;2023-04-27T08:07:43;14.60;74.10
13600;DHT22;6871;51.34740610;4.31323160;2023-04-27T08:10:12;14.70;74.20
13600;DHT22;6871;51.34740610;4.31323160;2023-04-27T08:12:41;14.70;74.20
13600;DHT22;6871;51.34740610;4.31323160;2023-04-27T08:15:11;14.70;74.10
13600;DHT22;6871;51.34740610;4.31323160;2023-04-27T08:17:41;14.70;74.00
13600;DHT22;6871;51.34740610;4.31323160;2023-04-27T08:20:12;14.70;74.10
13600;DHT22;6871;51.34740610;4.31323160;2023-04-27T08:22:42;14.80;74.20
13600;DHT22;6871;51.34740610;4.31323160;2023-04-27T08:25:12;14.80;74.20
13600;DHT22;6871;51.34740610;4.31323160;2023-04-27T08:27:41;14.80;74.30
13600;DHT22;6871;51.34740610;4.31323160;2023-04-27T08:30:12;14.80;73.80
13600;DHT22;6871;51.34740610;4.31323160;2023-04-27T08:32:41;14.80;74.00
13600;DHT22;6871;51.34740610;4.31323160;2023-04-27T08:35:11;14.80;74.20
13600;DHT22;6871;51.34740610;4.31323160;2023-04-27T08:37:41;14.80;74.10
13600;DHT22;6871;51.34740610;4.31323160;2023-04-27T08:40:12;14.80;74.80
13600;DHT22;6871;51.34740610;4.31323160;2023-04-27T08:42:52;14.80;74.80
13600;DHT22;6871;51.34740610;4.31323160;2023-04-27T08:45:22;14.90;74.60
13600;DHT22;6871;51.34740610;4.31323160;2023-04-27T08:47:51;14.90;74.40
13600;DHT22;6871;51.34740610;4.31323160;2023-04-27T08:50:21;14.90;75.20
13600;DHT22;6871;51.34740610;4.31323160;2023-04-27T08:52:51;14.90;74.10
13600;DHT22;6871;51.34740610;4.31323160;2023-04-27T08:55:20;15.00;74.00
13600;DHT22;6871;51.34740610;4.31323160;2023-04-27T08:57:57;15.00;74.00
13600;DHT22;6871;51.34740610;4.31323160;2023-04-27T09:00:36;15.00;74.00
13600;DHT22;6871;51.34740610;4.31323160;2023-04-27T09:03:00;15.00;74.20
13600;DHT22;6871;51.34740610;4.31323160;2023-04-27T09:05:30;15.00;74.00
13600;DHT22;6871;51.34740610;4.31323160;2023-04-27T09:08:01;15.10;73.90
13600;DHT22;6871;51.34740610;4.31323160;2023-04-27T09:10:45;15.00;74.00
13600;DHT22;6871;51.34740610;4.31323160;2023-04-27T09:13:15;15.10;73.80
13600;DHT22;6871;51.34740610;4.31323160;2023-04-27T09:15:46;15.10;73.80
13600;DHT22;6871;51.34740610;4.31323160;2023-04-27T09:18:16;15.10;73.70
13600;DHT22;6871;51.34740610;4.31323160;2023-04-27T09:20:47;15.20;73.80
13600;DHT22;6871;51.34740610;4.31323160;2023-04-27T09:23:27;15.20;74.80
13600;DHT22;6871;51.34740610;4.31323160;2023-04-27T09:25:57;15.20;73.90
13600;DHT22;6871;51.34740610;4.31323160;2023-04-27T09:28:28;15.20;73.70
13600;DHT22;6871;51.34740610;4.31323160;2023-04-27T09:31:00;15.20;73.90
13600;DHT22;6871;51.34740610;4.31323160;2023-04-27T09:33:31;15.30;73.60
13600;DHT22;6871;51.34740610;4.31323160;2023-04-27T09:36:02;15.20;73.50
13600;DHT22;6871;51.34740610;4.31323160;2023-04-27T09:38:32;15.20;73.60
13600;DHT22;6871;51.34740610;4.31323160;2023-04-27T09:41:02;15.30;73.70
13600;DHT22;6871;51.34740610;4.31323160;2023-04-27T09:43:32;15.20;73.80
13600;DHT22;6871;51.34740610;4.31323160;2023-04-27T09:46:03;15.20;73.70
13600;DHT22;6871;51.34740610;4.31323160;2023-04-27T09:48:33;15.30;73.70
13600;DHT22;6871;51.34740610;4.31323160;2023-04-27T09:51:03;15.30;73.60
13600;DHT22;6871;51.34740610;4.31323160;2023-04-27T09:53:36;15.30;73.60
13600;DHT22;6871;51.34740610;4.31323160;2023-04-27T09:56:25;15.30;73.40
13600;DHT22;6871;51.34740610;4.31323160;2023-04-27T09:59:21;15.30;74.00
13600;DHT22;6871;51.34740610;4.31323160;2023-04-27T10:01:53;15.30;73.90
13600;DHT22;6871;51.34740610;4.31323160;2023-04-27T10:04:32;15.20;73.40
13600;DHT22;6871;51.34740610;4.31323160;2023-04-27T10:07:02;15.20;73.20
13600;DHT22;6871;51.34740610;4.31323160;2023-04-27T10:09:39;15.30;73.20
13600;DHT22;6871;51.34740610;4.31323160;2023-04-27T10:12:17;15.40;73.00
13600;DHT22;6871;51.34740610;4.31323160;2023-04-27T10:17:48;15.40;73.30
13600;DHT22;6871;51.34740610;4.31323160;2023-04-27T10:20:28;15.30;72.80
13600;DHT22;6871;51.34740610;4.31323160;2023-04-27T10:22:58;15.30;73.20
13600;DHT22;6871;51.34740610;4.31323160;2023-04-27T10:25:29;15.40;72.80
13600;DHT22;6871;51.34740610;4.31323160;2023-04-27T10:28:01;15.40;72.90
13600;DHT22;6871;51.34740610;4.31323160;2023-04-27T10:30:33;15.40;73.20
13600;DHT22;6871;51.34740610;4.31323160;2023-04-27T10:33:06;15.50;73.40
13600;DHT22;6871;51.34740610;4.31323160;2023-04-27T10:35:37;15.50;73.30
13600;DHT22;6871;51.34740610;4.31323160;2023-04-27T10:38:08;15.50;73.30
13600;DHT22;6871;51.34740610;4.31323160;2023-04-27T10:40:38;15.50;73.10
13600;DHT22;6871;51.34740610;4.31323160;2023-04-27T10:43:12;15.50;72.90
13600;DHT22;6871;51.34740610;4.31323160;2023-04-27T10:45:42;15.50;72.40
13600;DHT22;6871;51.34740610;4.31323160;2023-04-27T10:48:13;15.40;74.10
13600;DHT22;6871;51.34740610;4.31323160;2023-04-27T10:50:43;15.50;75.10
13600;DHT22;6871;51.34740610;4.31323160;2023-04-27T10:53:13;15.50;74.10
13600;DHT22;6871;51.34740610;4.31323160;2023-04-27T10:55:44;15.50;74.40
13600;DHT22;6871;51.34740610;4.31323160;2023-04-27T10:58:13;15.60;74.20
13600;DHT22;6871;51.34740610;4.31323160;2023-04-27T11:00:43;15.70;74.10
13600;DHT22;6871;51.34740610;4.31323160;2023-04-27T11:03:15;15.70;73.30
13600;DHT22;6871;51.34740610;4.31323160;2023-04-27T11:05:47;15.60;73.30
13600;DHT22;6871;51.34740610;4.31323160;2023-04-27T11:08:18;15.60;73.90
13600;DHT22;6871;51.34740610;4.31323160;2023-04-27T11:10:49;15.60;73.40
13600;DHT22;6871;51.34740610;4.31323160;2023-04-27T11:13:20;15.50;73.30
13600;DHT22;6871;51.34740610;4.31323160;2023-04-27T11:15:51;15.40;73.40
13600;DHT22;6871;51.34740610;4.31323160;2023-04-27T11:18:22;15.40;73.80
13600;DHT22;6871;51.34740610;4.31323160;2023-04-27T11:21:05;15.50;74.40
13600;DHT22;6871;51.34740610;4.31323160;2023-04-27T11:23:26;15.70;74.20
13600;DHT22;6871;51.34740610;4.31323160;2023-04-27T11:25:56;15.60;73.50
13600;DHT22;6871;51.34740610;4.31323160;2023-04-27T11:28:25;15.60;73.60
13600;DHT22;6871;51.34740610;4.31323160;2023-04-27T11:30:58;15.50;74.10
13600;DHT22;6871;51.34740610;4.31323160;2023-04-27T11:33:28;15.50;74.50
13600;DHT22;6871;51.34740610;4.31323160;2023-04-27T11:35:57;15.50;73.70
13600;DHT22;6871;51.34740610;4.31323160;2023-04-27T11:38:32;15.60;74.20
13600;DHT22;6871;51.34740610;4.31323160;2023-04-27T11:41:03;15.60;76.20
13600;DHT22;6871;51.34740610;4.31323160;2023-04-27T11:43:35;15.70;75.70
13600;DHT22;6871;51.34740610;4.31323160;2023-04-27T11:46:05;15.80;75.50
13600;DHT22;6871;51.34740610;4.31323160;2023-04-27T11:48:37;15.80;74.90
13600;DHT22;6871;51.34740610;4.31323160;2023-04-27T11:51:09;15.80;75.30
13600;DHT22;6871;51.34740610;4.31323160;2023-04-27T11:53:40;15.80;75.30
13600;DHT22;6871;51.34740610;4.31323160;2023-04-27T11:56:10;15.90;75.10
13600;DHT22;6871;51.34740610;4.31323160;2023-04-27T11:58:40;15.90;74.80
13600;DHT22;6871;51.34740610;4.31323160;2023-04-27T12:01:10;15.90;74.90
13600;DHT22;6871;51.34740610;4.31323160;2023-04-27T12:03:40;15.90;75.00
13600;DHT22;6871;51.34740610;4.31323160;2023-04-27T12:06:14;15.90;75.10
13600;DHT22;6871;51.34740610;4.31323160;2023-04-27T12:08:44;16.00;75.30
13600;DHT22;6871;51.34740610;4.31323160;2023-04-27T12:11:14;15.90;74.00
13600;DHT22;6871;51.34740610;4.31323160;2023-04-27T12:13:44;15.90;74.30
13600;DHT22;6871;51.34740610;4.31323160;2023-04-27T12:16:14;15.90;74.00
13600;DHT22;6871;51.34740610;4.31323160;2023-04-27T12:18:43;15.90;74.20
13600;DHT22;6871;51.34740610;4.31323160;2023-04-27T12:21:13;15.90;74.80
13600;DHT22;6871;51.34740610;4.31323160;2023-04-27T12:23:43;15.90;75.50
13600;DHT22;6871;51.34740610;4.31323160;2023-04-27T12:26:12;16.00;75.80
13600;DHT22;6871;51.34740610;4.31323160;2023-04-27T12:28:42;16.00;76.00
13600;DHT22;6871;51.34740610;4.31323160;2023-04-27T12:31:13;15.90;73.80
13600;DHT22;6871;51.34740610;4.31323160;2023-04-27T12:33:44;15.90;75.00
13600;DHT22;6871;51.34740610;4.31323160;2023-04-27T12:36:13;16.00;74.80
13600;DHT22;6871;51.34740610;4.31323160;2023-04-27T12:38:48;16.00;74.40
13600;DHT22;6871;51.34740610;4.31323160;2023-04-27T12:54:46;16.00;75.00
13600;DHT22;6871;51.34740610;4.31323160;2023-04-27T12:57:16;16.00;75.60
13600;DHT22;6871;51.34740610;4.31323160;2023-04-27T12:59:45;16.00;75.70
13600;DHT22;6871;51.34740610;4.31323160;2023-04-27T13:02:15;16.00;75.90
13600;DHT22;6871;51.34740610;4.31323160;2023-04-27T13:04:45;15.90;76.00
13600;DHT22;6871;51.34740610;4.31323160;2023-04-27T13:07:14;15.90;74.80
13600;DHT22;6871;51.34740610;4.31323160;2023-04-27T13:09:43;15.90;74.80
13600;DHT22;6871;51.34740610;4.31323160;2023-04-27T13:12:13;16.00;75.00
13600;DHT22;6871;51.34740610;4.31323160;2023-04-27T13:14:43;16.00;74.80
13600;DHT22;6871;51.34740610;4.31323160;2023-04-27T13:17:13;16.00;74.50
13600;DHT22;6871;51.34740610;4.31323160;2023-04-27T13:19:45;16.00;74.20
13600;DHT22;6871;51.34740610;4.31323160;2023-04-27T13:22:17;16.00;74.30
13600;DHT22;6871;51.34740610;4.31323160;2023-04-27T13:24:48;16.00;75.60
13600;DHT22;6871;51.34740610;4.31323160;2023-04-27T13:27:18;16.00;75.00
13600;DHT22;6871;51.34740610;4.31323160;2023-04-27T13:29:51;16.10;75.10
13600;DHT22;6871;51.34740610;4.31323160;2023-04-27T13:32:22;16.10;75.50
13600;DHT22;6871;51.34740610;4.31323160;2023-04-27T13:34:52;16.10;75.20
13600;DHT22;6871;51.34740610;4.31323160;2023-04-27T13:37:22;16.10;75.30
13600;DHT22;6871;51.34740610;4.31323160;2023-04-27T13:39:51;16.10;75.20
13600;DHT22;6871;51.34740610;4.31323160;2023-04-27T13:42:21;16.10;75.20
13600;DHT22;6871;51.34740610;4.31323160;2023-04-27T13:44:58;16.10;75.30
13600;DHT22;6871;51.34740610;4.31323160;2023-04-27T13:47:28;16.10;75.10
13600;DHT22;6871;51.34740610;4.31323160;2023-04-27T13:50:00;16.10;75.30
13600;DHT22;6871;51.34740610;4.31323160;2023-04-27T13:55:12;16.10;75.30
13600;DHT22;6871;51.34740610;4.31323160;2023-04-27T13:57:41;16.00;74.50
13600;DHT22;6871;51.34740610;4.31323160;2023-04-27T14:00:13;16.00;74.70
13600;DHT22;6871;51.34740610;4.31323160;2023-04-27T14:02:43;16.10;74.20
13600;DHT22;6871;51.34740610;4.31323160;2023-04-27T14:05:12;16.00;73.40
13600;DHT22;6871;51.34740610;4.31323160;2023-04-27T14:07:42;16.00;72.30
13600;DHT22;6871;51.34740610;4.31323160;2023-04-27T14:10:11;16.10;70.20